Accueil
METAR-TAF:

METAR-TAF

Aéroports :

Plate-forme pétrolière

Troll C, Norvège

latitude: 60-53-09N, longitude: 3-36-35E, altitude: 20 m

Observation

Le bulletin a été fait il y a 33 minutes, à 14:50 UTC
Vent 20 kt de sud/sud-ouest
Température 10°C
Humidité 76%
Pression 1012 hPa

METAR: ENQC 121450Z AUTO 21020KT //// FEW048/// SCT170/// 10/06 Q1012 W///S5

Heure: 17:23 (15:23 UTC)


TAF: absent

Observations et prévisions météorologiques de plus de 4000 aéroports (messages METAR et TAF).

Les stations disponibles sont représentées par des disques jaunes et rouges sur la carte.

Passer la souris dessus pour voir le nom de la station.

Cliquer dessus pour voir les observations et prévisions météorologiques.

Pour changer de carte: cliquez sur les boutons verts avec une croix noire pour zoomer, sur le bouton vert avec un tiret pour effectuer un zoom arrière, ou sur les flèches vertes pour les cartes adjacentes.


METAR-TAF: